sensor_id;sensor_type;location;lat;lon;timestamp;P1;durP1;ratioP1;P2;durP2;ratioP2
6031;SDS011;3044;43.232;27.972;2023-06-10T00:02:01;4.93;;;3.03;;
6031;SDS011;3044;43.232;27.972;2023-06-10T00:04:28;4.03;;;2.40;;
6031;SDS011;3044;43.232;27.972;2023-06-10T00:06:55;3.03;;;2.63;;
6031;SDS011;3044;43.232;27.972;2023-06-10T00:09:23;3.37;;;3.00;;
6031;SDS011;3044;43.232;27.972;2023-06-10T00:11:52;4.53;;;2.50;;
6031;SDS011;3044;43.232;27.972;2023-06-10T00:14:19;4.63;;;2.33;;
6031;SDS011;3044;43.232;27.972;2023-06-10T00:16:46;5.00;;;2.50;;
6031;SDS011;3044;43.232;27.972;2023-06-10T00:19:13;5.20;;;2.37;;
6031;SDS011;3044;43.232;27.972;2023-06-10T00:21:40;4.90;;;3.10;;
6031;SDS011;3044;43.232;27.972;2023-06-10T00:24:10;5.70;;;2.90;;
6031;SDS011;3044;43.232;27.972;2023-06-10T00:26:38;3.33;;;2.97;;
6031;SDS011;3044;43.232;27.972;2023-06-10T00:29:07;9.73;;;3.10;;
6031;SDS011;3044;43.232;27.972;2023-06-10T00:31:34;10.30;;;2.67;;
6031;SDS011;3044;43.232;27.972;2023-06-10T00:34:02;10.73;;;2.87;;
6031;SDS011;3044;43.232;27.972;2023-06-10T00:36:29;5.40;;;2.30;;
6031;SDS011;3044;43.232;27.972;2023-06-10T00:38:56;4.70;;;2.57;;
6031;SDS011;3044;43.232;27.972;2023-06-10T00:41:23;3.40;;;2.20;;
6031;SDS011;3044;43.232;27.972;2023-06-10T00:43:51;5.33;;;2.40;;
6031;SDS011;3044;43.232;27.972;2023-06-10T00:46:20;9.83;;;2.97;;
6031;SDS011;3044;43.232;27.972;2023-06-10T00:48:48;5.30;;;2.30;;
6031;SDS011;3044;43.232;27.972;2023-06-10T00:51:15;8.37;;;2.60;;
6031;SDS011;3044;43.232;27.972;2023-06-10T00:53:43;2.30;;;2.10;;
6031;SDS011;3044;43.232;27.972;2023-06-10T00:56:11;3.17;;;2.37;;
6031;SDS011;3044;43.232;27.972;2023-06-10T00:58:39;2.23;;;2.03;;
6031;SDS011;3044;43.232;27.972;2023-06-10T01:01:07;2.93;;;2.50;;
6031;SDS011;3044;43.232;27.972;2023-06-10T01:03:37;11.03;;;2.80;;
6031;SDS011;3044;43.232;27.972;2023-06-10T01:06:06;12.47;;;2.40;;
6031;SDS011;3044;43.232;27.972;2023-06-10T01:08:53;8.83;;;2.47;;
6031;SDS011;3044;43.232;27.972;2023-06-10T01:11:28;3.00;;;2.50;;
6031;SDS011;3044;43.232;27.972;2023-06-10T01:14:01;5.53;;;2.53;;
6031;SDS011;3044;43.232;27.972;2023-06-10T01:16:30;3.40;;;1.90;;
6031;SDS011;3044;43.232;27.972;2023-06-10T01:18:59;2.73;;;2.07;;
6031;SDS011;3044;43.232;27.972;2023-06-10T01:21:27;3.23;;;2.83;;
6031;SDS011;3044;43.232;27.972;2023-06-10T01:23:56;2.20;;;2.00;;
6031;SDS011;3044;43.232;27.972;2023-06-10T01:26:25;3.90;;;2.23;;
6031;SDS011;3044;43.232;27.972;2023-06-10T01:28:58;6.20;;;2.40;;
6031;SDS011;3044;43.232;27.972;2023-06-10T01:31:31;5.23;;;2.47;;
6031;SDS011;3044;43.232;27.972;2023-06-10T01:34:06;5.40;;;3.00;;
6031;SDS011;3044;43.232;27.972;2023-06-10T01:36:38;3.80;;;2.70;;
6031;SDS011;3044;43.232;27.972;2023-06-10T01:39:06;5.00;;;2.53;;
6031;SDS011;3044;43.232;27.972;2023-06-10T01:41:35;12.30;;;2.97;;
6031;SDS011;3044;43.232;27.972;2023-06-10T01:44:04;2.63;;;2.43;;
6031;SDS011;3044;43.232;27.972;2023-06-10T01:46:31;6.47;;;2.33;;
6031;SDS011;3044;43.232;27.972;2023-06-10T01:48:58;7.73;;;2.20;;
6031;SDS011;3044;43.232;27.972;2023-06-10T01:51:25;10.27;;;2.70;;
6031;SDS011;3044;43.232;27.972;2023-06-10T01:53:53;2.47;;;2.37;;
6031;SDS011;3044;43.232;27.972;2023-06-10T01:56:20;18.23;;;3.00;;
6031;SDS011;3044;43.232;27.972;2023-06-10T01:58:47;2.70;;;2.50;;
6031;SDS011;3044;43.232;27.972;2023-06-10T02:01:14;3.87;;;2.73;;
6031;SDS011;3044;43.232;27.972;2023-06-10T02:03:42;2.53;;;2.40;;
6031;SDS011;3044;43.232;27.972;2023-06-10T02:06:09;7.43;;;2.77;;
6031;SDS011;3044;43.232;27.972;2023-06-10T02:08:36;6.13;;;2.50;;
6031;SDS011;3044;43.232;27.972;2023-06-10T02:11:04;3.13;;;2.93;;
6031;SDS011;3044;43.232;27.972;2023-06-10T02:13:32;5.20;;;2.53;;
6031;SDS011;3044;43.232;27.972;2023-06-10T02:15:59;3.17;;;2.87;;
6031;SDS011;3044;43.232;27.972;2023-06-10T02:18:27;7.43;;;3.47;;
6031;SDS011;3044;43.232;27.972;2023-06-10T02:20:54;5.60;;;2.60;;
6031;SDS011;3044;43.232;27.972;2023-06-10T02:23:21;2.37;;;2.10;;
6031;SDS011;3044;43.232;27.972;2023-06-10T02:25:49;5.30;;;3.20;;
6031;SDS011;3044;43.232;27.972;2023-06-10T02:28:17;3.50;;;3.20;;
6031;SDS011;3044;43.232;27.972;2023-06-10T02:30:44;17.00;;;3.33;;
6031;SDS011;3044;43.232;27.972;2023-06-10T02:33:12;4.40;;;2.70;;
6031;SDS011;3044;43.232;27.972;2023-06-10T02:35:39;5.57;;;2.60;;
6031;SDS011;3044;43.232;27.972;2023-06-10T02:38:07;4.93;;;2.73;;
6031;SDS011;3044;43.232;27.972;2023-06-10T02:40:34;3.73;;;2.43;;
6031;SDS011;3044;43.232;27.972;2023-06-10T02:43:02;6.67;;;2.50;;
6031;SDS011;3044;43.232;27.972;2023-06-10T02:45:30;3.87;;;2.40;;
6031;SDS011;3044;43.232;27.972;2023-06-10T02:47:57;3.77;;;2.30;;
6031;SDS011;3044;43.232;27.972;2023-06-10T02:50:24;6.70;;;2.20;;
6031;SDS011;3044;43.232;27.972;2023-06-10T02:52:51;3.40;;;2.10;;
6031;SDS011;3044;43.232;27.972;2023-06-10T02:55:18;3.73;;;2.43;;
6031;SDS011;3044;43.232;27.972;2023-06-10T02:57:46;7.10;;;2.50;;
6031;SDS011;3044;43.232;27.972;2023-06-10T03:00:13;2.17;;;2.07;;
6031;SDS011;3044;43.232;27.972;2023-06-10T03:02:43;8.30;;;2.57;;
6031;SDS011;3044;43.232;27.972;2023-06-10T03:05:11;3.50;;;2.63;;
6031;SDS011;3044;43.232;27.972;2023-06-10T03:07:38;6.20;;;2.50;;
6031;SDS011;3044;43.232;27.972;2023-06-10T03:10:06;6.87;;;2.20;;
6031;SDS011;3044;43.232;27.972;2023-06-10T03:12:34;3.67;;;2.60;;
6031;SDS011;3044;43.232;27.972;2023-06-10T03:15:01;3.10;;;2.70;;
6031;SDS011;3044;43.232;27.972;2023-06-10T03:17:29;6.00;;;2.73;;
6031;SDS011;3044;43.232;27.972;2023-06-10T03:19:57;3.67;;;2.67;;
6031;SDS011;3044;43.232;27.972;2023-06-10T03:22:25;5.53;;;2.27;;
6031;SDS011;3044;43.232;27.972;2023-06-10T03:24:52;4.77;;;2.47;;
6031;SDS011;3044;43.232;27.972;2023-06-10T03:27:20;3.17;;;2.90;;
6031;SDS011;3044;43.232;27.972;2023-06-10T03:29:47;5.80;;;2.50;;
6031;SDS011;3044;43.232;27.972;2023-06-10T03:32:14;5.03;;;2.57;;
6031;SDS011;3044;43.232;27.972;2023-06-10T03:34:41;5.97;;;2.10;;
6031;SDS011;3044;43.232;27.972;2023-06-10T03:37:11;7.60;;;2.30;;
6031;SDS011;3044;43.232;27.972;2023-06-10T03:39:38;7.00;;;2.20;;
6031;SDS011;3044;43.232;27.972;2023-06-10T03:42:06;8.07;;;2.30;;
6031;SDS011;3044;43.232;27.972;2023-06-10T03:44:33;2.97;;;2.60;;
6031;SDS011;3044;43.232;27.972;2023-06-10T03:47:00;13.00;;;2.87;;
6031;SDS011;3044;43.232;27.972;2023-06-10T03:49:28;7.70;;;2.70;;
6031;SDS011;3044;43.232;27.972;2023-06-10T03:51:55;3.80;;;2.47;;
6031;SDS011;3044;43.232;27.972;2023-06-10T03:54:23;4.80;;;2.70;;
6031;SDS011;3044;43.232;27.972;2023-06-10T03:56:50;3.03;;;1.93;;
6031;SDS011;3044;43.232;27.972;2023-06-10T03:59:18;6.83;;;2.67;;
6031;SDS011;3044;43.232;27.972;2023-06-10T04:01:45;10.10;;;2.60;;
6031;SDS011;3044;43.232;27.972;2023-06-10T04:04:13;4.30;;;2.53;;
6031;SDS011;3044;43.232;27.972;2023-06-10T04:06:41;3.33;;;2.30;;
6031;SDS011;3044;43.232;27.972;2023-06-10T04:09:10;4.40;;;2.30;;
6031;SDS011;3044;43.232;27.972;2023-06-10T04:11:38;3.27;;;2.30;;
6031;SDS011;3044;43.232;27.972;2023-06-10T04:14:05;3.90;;;2.27;;
6031;SDS011;3044;43.232;27.972;2023-06-10T04:16:32;7.50;;;2.47;;
6031;SDS011;3044;43.232;27.972;2023-06-10T04:19:00;4.27;;;2.27;;
6031;SDS011;3044;43.232;27.972;2023-06-10T04:21:28;4.40;;;2.23;;
6031;SDS011;3044;43.232;27.972;2023-06-10T04:23:55;5.73;;;2.20;;
6031;SDS011;3044;43.232;27.972;2023-06-10T04:26:22;6.57;;;2.43;;
6031;SDS011;3044;43.232;27.972;2023-06-10T04:28:50;3.57;;;2.40;;
6031;SDS011;3044;43.232;27.972;2023-06-10T04:31:17;3.20;;;2.37;;
6031;SDS011;3044;43.232;27.972;2023-06-10T04:33:45;4.80;;;2.20;;
6031;SDS011;3044;43.232;27.972;2023-06-10T04:36:13;2.60;;;2.00;;
6031;SDS011;3044;43.232;27.972;2023-06-10T04:38:40;7.90;;;2.20;;
6031;SDS011;3044;43.232;27.972;2023-06-10T04:41:07;1.90;;;1.80;;
6031;SDS011;3044;43.232;27.972;2023-06-10T04:43:34;8.80;;;2.80;;
6031;SDS011;3044;43.232;27.972;2023-06-10T04:46:03;2.63;;;2.30;;
6031;SDS011;3044;43.232;27.972;2023-06-10T04:48:30;3.30;;;2.33;;
6031;SDS011;3044;43.232;27.972;2023-06-10T04:51:00;11.40;;;2.73;;
6031;SDS011;3044;43.232;27.972;2023-06-10T04:53:27;7.60;;;2.20;;
6031;SDS011;3044;43.232;27.972;2023-06-10T04:55:54;17.87;;;3.10;;
6031;SDS011;3044;43.232;27.972;2023-06-10T04:58:22;18.73;;;2.83;;
6031;SDS011;3044;43.232;27.972;2023-06-10T05:00:49;21.40;;;3.27;;
6031;SDS011;3044;43.232;27.972;2023-06-10T05:03:18;9.23;;;2.50;;
6031;SDS011;3044;43.232;27.972;2023-06-10T05:05:45;22.33;;;2.97;;
6031;SDS011;3044;43.232;27.972;2023-06-10T05:08:12;20.23;;;3.20;;
6031;SDS011;3044;43.232;27.972;2023-06-10T05:10:39;5.50;;;2.30;;
6031;SDS011;3044;43.232;27.972;2023-06-10T05:13:06;4.03;;;2.40;;
6031;SDS011;3044;43.232;27.972;2023-06-10T05:15:33;6.83;;;2.27;;
6031;SDS011;3044;43.232;27.972;2023-06-10T05:18:01;3.00;;;2.37;;
6031;SDS011;3044;43.232;27.972;2023-06-10T05:20:30;7.60;;;2.97;;
6031;SDS011;3044;43.232;27.972;2023-06-10T05:22:57;7.20;;;2.67;;
6031;SDS011;3044;43.232;27.972;2023-06-10T05:25:25;6.57;;;2.80;;
6031;SDS011;3044;43.232;27.972;2023-06-10T05:27:53;3.30;;;2.23;;
6031;SDS011;3044;43.232;27.972;2023-06-10T05:30:20;2.80;;;2.33;;
6031;SDS011;3044;43.232;27.972;2023-06-10T05:32:47;8.20;;;2.40;;
6031;SDS011;3044;43.232;27.972;2023-06-10T05:35:16;4.60;;;2.30;;
6031;SDS011;3044;43.232;27.972;2023-06-10T05:37:45;2.60;;;2.40;;
6031;SDS011;3044;43.232;27.972;2023-06-10T05:40:12;4.17;;;2.70;;
6031;SDS011;3044;43.232;27.972;2023-06-10T05:42:39;5.43;;;2.43;;
6031;SDS011;3044;43.232;27.972;2023-06-10T05:45:07;6.83;;;2.60;;
6031;SDS011;3044;43.232;27.972;2023-06-10T05:47:35;2.83;;;2.30;;
6031;SDS011;3044;43.232;27.972;2023-06-10T05:50:02;5.20;;;2.40;;
6031;SDS011;3044;43.232;27.972;2023-06-10T05:52:32;5.97;;;2.70;;
6031;SDS011;3044;43.232;27.972;2023-06-10T05:55:00;5.67;;;2.23;;
6031;SDS011;3044;43.232;27.972;2023-06-10T05:57:28;3.33;;;2.20;;
6031;SDS011;3044;43.232;27.972;2023-06-10T05:59:55;5.07;;;2.80;;
6031;SDS011;3044;43.232;27.972;2023-06-10T06:02:22;2.80;;;1.93;;
6031;SDS011;3044;43.232;27.972;2023-06-10T06:04:49;3.67;;;2.27;;
6031;SDS011;3044;43.232;27.972;2023-06-10T06:07:16;19.10;;;3.63;;
6031;SDS011;3044;43.232;27.972;2023-06-10T06:09:45;6.57;;;2.10;;
6031;SDS011;3044;43.232;27.972;2023-06-10T06:12:14;7.73;;;2.60;;
6031;SDS011;3044;43.232;27.972;2023-06-10T06:14:41;2.80;;;2.27;;
6031;SDS011;3044;43.232;27.972;2023-06-10T06:17:10;5.63;;;2.57;;
6031;SDS011;3044;43.232;27.972;2023-06-10T06:19:37;8.00;;;2.73;;
6031;SDS011;3044;43.232;27.972;2023-06-10T06:22:05;3.97;;;2.60;;
6031;SDS011;3044;43.232;27.972;2023-06-10T06:24:32;2.47;;;2.27;;
6031;SDS011;3044;43.232;27.972;2023-06-10T06:26:59;8.30;;;2.63;;
6031;SDS011;3044;43.232;27.972;2023-06-10T06:29:27;9.00;;;2.40;;
6031;SDS011;3044;43.232;27.972;2023-06-10T06:31:55;10.03;;;2.77;;
6031;SDS011;3044;43.232;27.972;2023-06-10T06:34:22;3.10;;;2.33;;
6031;SDS011;3044;43.232;27.972;2023-06-10T06:36:49;4.90;;;3.90;;
6031;SDS011;3044;43.232;27.972;2023-06-10T06:39:16;9.60;;;5.40;;
6031;SDS011;3044;43.232;27.972;2023-06-10T06:41:43;16.43;;;5.13;;
6031;SDS011;3044;43.232;27.972;2023-06-10T06:44:10;9.27;;;4.77;;
6031;SDS011;3044;43.232;27.972;2023-06-10T06:46:39;22.30;;;4.37;;
6031;SDS011;3044;43.232;27.972;2023-06-10T06:49:06;9.33;;;3.80;;
6031;SDS011;3044;43.232;27.972;2023-06-10T06:51:33;7.97;;;3.53;;
6031;SDS011;3044;43.232;27.972;2023-06-10T06:54:00;4.93;;;3.80;;
6031;SDS011;3044;43.232;27.972;2023-06-10T06:56:27;8.13;;;4.10;;
6031;SDS011;3044;43.232;27.972;2023-06-10T06:58:55;10.60;;;3.60;;
6031;SDS011;3044;43.232;27.972;2023-06-10T07:01:22;19.10;;;3.67;;
6031;SDS011;3044;43.232;27.972;2023-06-10T07:03:50;8.97;;;3.27;;
6031;SDS011;3044;43.232;27.972;2023-06-10T07:06:17;10.63;;;4.33;;
6031;SDS011;3044;43.232;27.972;2023-06-10T07:08:44;7.87;;;3.43;;
6031;SDS011;3044;43.232;27.972;2023-06-10T07:11:12;7.23;;;3.30;;
6031;SDS011;3044;43.232;27.972;2023-06-10T07:13:39;5.93;;;3.47;;
6031;SDS011;3044;43.232;27.972;2023-06-10T07:16:07;10.33;;;3.50;;
6031;SDS011;3044;43.232;27.972;2023-06-10T07:18:34;5.93;;;4.63;;
6031;SDS011;3044;43.232;27.972;2023-06-10T07:21:03;13.20;;;7.40;;
6031;SDS011;3044;43.232;27.972;2023-06-10T07:23:30;13.43;;;6.63;;
6031;SDS011;3044;43.232;27.972;2023-06-10T07:25:57;16.97;;;5.73;;
6031;SDS011;3044;43.232;27.972;2023-06-10T07:28:24;7.60;;;3.60;;
6031;SDS011;3044;43.232;27.972;2023-06-10T07:30:51;10.67;;;4.10;;
6031;SDS011;3044;43.232;27.972;2023-06-10T07:33:19;17.03;;;4.50;;
6031;SDS011;3044;43.232;27.972;2023-06-10T07:35:46;4.60;;;3.27;;
6031;SDS011;3044;43.232;27.972;2023-06-10T07:38:14;5.90;;;3.23;;
6031;SDS011;3044;43.232;27.972;2023-06-10T07:40:41;13.93;;;3.67;;
6031;SDS011;3044;43.232;27.972;2023-06-10T07:43:08;13.77;;;3.83;;
6031;SDS011;3044;43.232;27.972;2023-06-10T07:45:35;7.30;;;2.77;;
6031;SDS011;3044;43.232;27.972;2023-06-10T07:48:03;5.13;;;3.03;;
6031;SDS011;3044;43.232;27.972;2023-06-10T07:50:30;13.43;;;4.60;;
6031;SDS011;3044;43.232;27.972;2023-06-10T07:52:57;14.70;;;5.37;;
6031;SDS011;3044;43.232;27.972;2023-06-10T07:55:26;16.23;;;5.23;;
6031;SDS011;3044;43.232;27.972;2023-06-10T07:57:53;15.23;;;5.60;;
6031;SDS011;3044;43.232;27.972;2023-06-10T08:00:20;9.80;;;4.70;;
6031;SDS011;3044;43.232;27.972;2023-06-10T08:02:48;14.60;;;5.23;;
6031;SDS011;3044;43.232;27.972;2023-06-10T08:05:15;12.03;;;4.70;;
6031;SDS011;3044;43.232;27.972;2023-06-10T08:07:43;13.50;;;4.97;;
6031;SDS011;3044;43.232;27.972;2023-06-10T08:10:11;16.50;;;4.70;;
6031;SDS011;3044;43.232;27.972;2023-06-10T08:12:40;12.40;;;4.60;;
6031;SDS011;3044;43.232;27.972;2023-06-10T08:15:07;13.80;;;4.23;;
6031;SDS011;3044;43.232;27.972;2023-06-10T08:17:35;13.63;;;4.63;;
6031;SDS011;3044;43.232;27.972;2023-06-10T08:20:03;7.17;;;4.80;;
6031;SDS011;3044;43.232;27.972;2023-06-10T08:22:31;7.10;;;4.10;;
6031;SDS011;3044;43.232;27.972;2023-06-10T08:24:58;11.07;;;4.90;;
6031;SDS011;3044;43.232;27.972;2023-06-10T08:27:25;12.53;;;4.23;;
6031;SDS011;3044;43.232;27.972;2023-06-10T08:29:54;7.27;;;3.80;;
6031;SDS011;3044;43.232;27.972;2023-06-10T08:32:21;9.90;;;4.10;;
6031;SDS011;3044;43.232;27.972;2023-06-10T08:34:48;12.83;;;3.70;;
6031;SDS011;3044;43.232;27.972;2023-06-10T08:37:15;6.20;;;3.53;;
6031;SDS011;3044;43.232;27.972;2023-06-10T08:39:42;5.00;;;3.70;;
6031;SDS011;3044;43.232;27.972;2023-06-10T08:42:11;9.53;;;4.80;;
6031;SDS011;3044;43.232;27.972;2023-06-10T08:44:49;10.90;;;3.50;;
6031;SDS011;3044;43.232;27.972;2023-06-10T08:47:22;7.63;;;3.87;;
6031;SDS011;3044;43.232;27.972;2023-06-10T08:49:50;5.17;;;3.50;;
6031;SDS011;3044;43.232;27.972;2023-06-10T08:52:19;7.00;;;3.57;;
6031;SDS011;3044;43.232;27.972;2023-06-10T08:54:48;15.43;;;3.57;;
6031;SDS011;3044;43.232;27.972;2023-06-10T08:57:19;6.30;;;3.47;;
6031;SDS011;3044;43.232;27.972;2023-06-10T08:59:47;5.43;;;3.70;;
6031;SDS011;3044;43.232;27.972;2023-06-10T09:02:16;9.93;;;3.57;;
6031;SDS011;3044;43.232;27.972;2023-06-10T09:04:45;13.07;;;3.40;;
6031;SDS011;3044;43.232;27.972;2023-06-10T09:07:13;6.67;;;3.40;;
6031;SDS011;3044;43.232;27.972;2023-06-10T09:09:42;5.77;;;4.03;;
6031;SDS011;3044;43.232;27.972;2023-06-10T09:12:09;8.90;;;4.03;;
6031;SDS011;3044;43.232;27.972;2023-06-10T09:14:37;8.70;;;4.30;;
6031;SDS011;3044;43.232;27.972;2023-06-10T09:17:05;9.70;;;3.50;;
6031;SDS011;3044;43.232;27.972;2023-06-10T09:19:34;5.87;;;2.87;;
6031;SDS011;3044;43.232;27.972;2023-06-10T09:22:02;9.13;;;3.67;;
6031;SDS011;3044;43.232;27.972;2023-06-10T09:24:29;6.33;;;2.83;;
6031;SDS011;3044;43.232;27.972;2023-06-10T09:27:04;7.77;;;3.30;;
6031;SDS011;3044;43.232;27.972;2023-06-10T09:29:43;7.20;;;4.40;;
6031;SDS011;3044;43.232;27.972;2023-06-10T09:32:12;7.37;;;3.40;;
6031;SDS011;3044;43.232;27.972;2023-06-10T09:34:41;6.37;;;3.40;;
6031;SDS011;3044;43.232;27.972;2023-06-10T09:37:08;4.90;;;3.47;;
6031;SDS011;3044;43.232;27.972;2023-06-10T09:39:37;3.47;;;2.50;;
6031;SDS011;3044;43.232;27.972;2023-06-10T09:42:10;3.10;;;2.80;;
6031;SDS011;3044;43.232;27.972;2023-06-10T09:44:48;16.13;;;2.90;;
6031;SDS011;3044;43.232;27.972;2023-06-10T09:47:19;6.90;;;2.83;;
6031;SDS011;3044;43.232;27.972;2023-06-10T09:49:49;11.60;;;2.67;;
6031;SDS011;3044;43.232;27.972;2023-06-10T09:52:21;11.70;;;2.73;;
6031;SDS011;3044;43.232;27.972;2023-06-10T09:54:49;4.60;;;2.37;;
6031;SDS011;3044;43.232;27.972;2023-06-10T09:57:17;2.60;;;2.50;;
6031;SDS011;3044;43.232;27.972;2023-06-10T09:59:44;3.30;;;2.97;;
6031;SDS011;3044;43.232;27.972;2023-06-10T10:02:15;6.37;;;3.13;;
6031;SDS011;3044;43.232;27.972;2023-06-10T10:04:42;6.47;;;3.30;;
6031;SDS011;3044;43.232;27.972;2023-06-10T10:07:11;6.40;;;2.60;;
6031;SDS011;3044;43.232;27.972;2023-06-10T10:09:39;3.27;;;3.00;;
6031;SDS011;3044;43.232;27.972;2023-06-10T10:12:08;6.50;;;2.93;;
6031;SDS011;3044;43.232;27.972;2023-06-10T10:14:37;3.90;;;3.50;;
6031;SDS011;3044;43.232;27.972;2023-06-10T10:17:07;15.63;;;3.00;;
6031;SDS011;3044;43.232;27.972;2023-06-10T10:19:37;3.87;;;2.87;;
6031;SDS011;3044;43.232;27.972;2023-06-10T10:22:15;6.97;;;3.60;;
6031;SDS011;3044;43.232;27.972;2023-06-10T10:24:46;12.63;;;3.70;;
6031;SDS011;3044;43.232;27.972;2023-06-10T10:27:17;7.80;;;2.90;;
6031;SDS011;3044;43.232;27.972;2023-06-10T10:29:47;5.53;;;3.17;;
6031;SDS011;3044;43.232;27.972;2023-06-10T10:32:18;4.07;;;2.63;;
6031;SDS011;3044;43.232;27.972;2023-06-10T10:34:54;3.83;;;2.60;;
6031;SDS011;3044;43.232;27.972;2023-06-10T10:37:32;10.83;;;2.83;;
6031;SDS011;3044;43.232;27.972;2023-06-10T10:40:00;3.50;;;3.00;;
6031;SDS011;3044;43.232;27.972;2023-06-10T10:42:30;4.73;;;2.80;;
6031;SDS011;3044;43.232;27.972;2023-06-10T10:44:58;5.07;;;2.60;;
6031;SDS011;3044;43.232;27.972;2023-06-10T10:47:26;6.50;;;2.77;;
6031;SDS011;3044;43.232;27.972;2023-06-10T10:49:55;3.33;;;2.90;;
6031;SDS011;3044;43.232;27.972;2023-06-10T10:52:24;3.93;;;2.97;;
6031;SDS011;3044;43.232;27.972;2023-06-10T10:54:54;4.80;;;2.70;;
6031;SDS011;3044;43.232;27.972;2023-06-10T10:57:21;12.80;;;3.10;;
6031;SDS011;3044;43.232;27.972;2023-06-10T10:59:54;3.00;;;2.50;;
6031;SDS011;3044;43.232;27.972;2023-06-10T11:02:34;5.10;;;2.53;;
6031;SDS011;3044;43.232;27.972;2023-06-10T11:05:04;13.53;;;2.90;;
6031;SDS011;3044;43.232;27.972;2023-06-10T11:07:33;3.37;;;2.77;;
6031;SDS011;3044;43.232;27.972;2023-06-10T11:10:04;7.93;;;3.60;;
6031;SDS011;3044;43.232;27.972;2023-06-10T11:12:40;5.30;;;3.03;;
6031;SDS011;3044;43.232;27.972;2023-06-10T11:15:19;3.60;;;2.33;;
6031;SDS011;3044;43.232;27.972;2023-06-10T11:18:08;10.80;;;3.40;;
6031;SDS011;3044;43.232;27.972;2023-06-10T11:20:45;5.07;;;2.77;;
6031;SDS011;3044;43.232;27.972;2023-06-10T11:23:25;7.13;;;2.87;;
6031;SDS011;3044;43.232;27.972;2023-06-10T11:26:16;8.93;;;2.50;;
6031;SDS011;3044;43.232;27.972;2023-06-10T11:31:44;3.20;;;2.70;;
6031;SDS011;3044;43.232;27.972;2023-06-10T11:34:12;5.33;;;2.60;;
6031;SDS011;3044;43.232;27.972;2023-06-10T11:36:40;3.33;;;2.70;;
6031;SDS011;3044;43.232;27.972;2023-06-10T11:39:10;5.30;;;2.83;;
6031;SDS011;3044;43.232;27.972;2023-06-10T11:41:39;6.80;;;2.60;;
6031;SDS011;3044;43.232;27.972;2023-06-10T11:44:08;8.60;;;3.17;;
6031;SDS011;3044;43.232;27.972;2023-06-10T11:46:36;11.90;;;2.23;;
6031;SDS011;3044;43.232;27.972;2023-06-10T11:49:05;6.30;;;3.60;;
6031;SDS011;3044;43.232;27.972;2023-06-10T11:51:33;5.10;;;2.57;;
6031;SDS011;3044;43.232;27.972;2023-06-10T11:54:01;6.93;;;3.57;;
6031;SDS011;3044;43.232;27.972;2023-06-10T11:56:29;3.83;;;2.43;;
6031;SDS011;3044;43.232;27.972;2023-06-10T11:58:59;10.17;;;3.10;;
6031;SDS011;3044;43.232;27.972;2023-06-10T12:01:29;4.07;;;3.33;;
6031;SDS011;3044;43.232;27.972;2023-06-10T12:03:58;4.60;;;2.93;;
6031;SDS011;3044;43.232;27.972;2023-06-10T12:06:26;6.03;;;3.27;;
6031;SDS011;3044;43.232;27.972;2023-06-10T12:08:53;3.80;;;2.30;;
6031;SDS011;3044;43.232;27.972;2023-06-10T12:11:21;4.57;;;2.50;;
6031;SDS011;3044;43.232;27.972;2023-06-10T12:13:49;3.80;;;2.60;;
6031;SDS011;3044;43.232;27.972;2023-06-10T12:16:18;13.37;;;2.80;;
6031;SDS011;3044;43.232;27.972;2023-06-10T12:18:46;4.40;;;2.60;;
6031;SDS011;3044;43.232;27.972;2023-06-10T12:21:20;6.20;;;3.07;;
6031;SDS011;3044;43.232;27.972;2023-06-10T12:24:03;10.40;;;2.57;;
6031;SDS011;3044;43.232;27.972;2023-06-10T12:26:35;12.17;;;2.90;;
6031;SDS011;3044;43.232;27.972;2023-06-10T12:29:15;4.47;;;2.43;;
6031;SDS011;3044;43.232;27.972;2023-06-10T12:34:38;6.50;;;3.47;;
6031;SDS011;3044;43.232;27.972;2023-06-10T12:37:09;3.07;;;2.80;;
6031;SDS011;3044;43.232;27.972;2023-06-10T12:39:39;5.23;;;3.13;;
6031;SDS011;3044;43.232;27.972;2023-06-10T12:42:08;5.73;;;3.20;;
6031;SDS011;3044;43.232;27.972;2023-06-10T12:44:38;5.70;;;2.93;;
6031;SDS011;3044;43.232;27.972;2023-06-10T12:47:11;5.90;;;3.37;;
6031;SDS011;3044;43.232;27.972;2023-06-10T12:49:38;9.93;;;2.67;;
6031;SDS011;3044;43.232;27.972;2023-06-10T12:52:06;7.87;;;3.50;;
6031;SDS011;3044;43.232;27.972;2023-06-10T12:54:34;8.50;;;3.23;;
6031;SDS011;3044;43.232;27.972;2023-06-10T12:57:01;9.10;;;2.90;;
6031;SDS011;3044;43.232;27.972;2023-06-10T12:59:28;7.83;;;3.30;;
6031;SDS011;3044;43.232;27.972;2023-06-10T13:01:57;8.47;;;3.37;;
6031;SDS011;3044;43.232;27.972;2023-06-10T13:04:25;4.93;;;2.73;;
6031;SDS011;3044;43.232;27.972;2023-06-10T13:06:52;8.40;;;3.20;;
6031;SDS011;3044;43.232;27.972;2023-06-10T13:09:20;6.40;;;2.70;;
6031;SDS011;3044;43.232;27.972;2023-06-10T13:11:47;5.10;;;2.57;;
6031;SDS011;3044;43.232;27.972;2023-06-10T13:14:15;4.70;;;3.13;;
6031;SDS011;3044;43.232;27.972;2023-06-10T13:16:42;10.47;;;2.80;;
6031;SDS011;3044;43.232;27.972;2023-06-10T13:19:09;4.13;;;3.00;;
6031;SDS011;3044;43.232;27.972;2023-06-10T13:21:38;5.90;;;3.13;;
6031;SDS011;3044;43.232;27.972;2023-06-10T13:24:05;3.20;;;2.90;;
6031;SDS011;3044;43.232;27.972;2023-06-10T13:26:32;10.30;;;3.40;;
6031;SDS011;3044;43.232;27.972;2023-06-10T13:29:00;7.87;;;3.67;;
6031;SDS011;3044;43.232;27.972;2023-06-10T13:31:27;8.43;;;3.30;;
6031;SDS011;3044;43.232;27.972;2023-06-10T13:33:54;15.70;;;4.00;;
6031;SDS011;3044;43.232;27.972;2023-06-10T13:36:21;16.70;;;3.27;;
6031;SDS011;3044;43.232;27.972;2023-06-10T13:38:50;6.23;;;3.27;;
6031;SDS011;3044;43.232;27.972;2023-06-10T13:41:17;8.00;;;3.30;;
6031;SDS011;3044;43.232;27.972;2023-06-10T13:43:44;4.47;;;2.90;;
6031;SDS011;3044;43.232;27.972;2023-06-10T13:46:11;5.93;;;3.10;;
6031;SDS011;3044;43.232;27.972;2023-06-10T13:48:38;7.80;;;3.20;;
6031;SDS011;3044;43.232;27.972;2023-06-10T13:51:05;7.90;;;3.57;;
6031;SDS011;3044;43.232;27.972;2023-06-10T13:53:34;11.57;;;3.67;;
6031;SDS011;3044;43.232;27.972;2023-06-10T13:56:02;3.53;;;2.73;;
6031;SDS011;3044;43.232;27.972;2023-06-10T13:58:30;7.43;;;3.00;;
6031;SDS011;3044;43.232;27.972;2023-06-10T14:00:57;6.37;;;3.30;;
6031;SDS011;3044;43.232;27.972;2023-06-10T14:03:25;8.30;;;3.10;;
6031;SDS011;3044;43.232;27.972;2023-06-10T14:05:52;10.83;;;3.37;;
6031;SDS011;3044;43.232;27.972;2023-06-10T14:08:19;5.97;;;3.10;;
6031;SDS011;3044;43.232;27.972;2023-06-10T14:10:46;12.47;;;2.67;;
6031;SDS011;3044;43.232;27.972;2023-06-10T14:13:17;5.77;;;2.90;;
6031;SDS011;3044;43.232;27.972;2023-06-10T14:15:44;8.17;;;2.83;;
6031;SDS011;3044;43.232;27.972;2023-06-10T14:18:11;4.03;;;3.03;;
6031;SDS011;3044;43.232;27.972;2023-06-10T14:20:39;10.23;;;3.00;;
6031;SDS011;3044;43.232;27.972;2023-06-10T14:23:06;8.53;;;3.50;;
6031;SDS011;3044;43.232;27.972;2023-06-10T14:25:33;10.67;;;2.97;;
6031;SDS011;3044;43.232;27.972;2023-06-10T14:28:00;8.33;;;3.47;;
6031;SDS011;3044;43.232;27.972;2023-06-10T14:30:28;7.43;;;2.90;;
6031;SDS011;3044;43.232;27.972;2023-06-10T14:32:55;10.53;;;3.47;;
6031;SDS011;3044;43.232;27.972;2023-06-10T14:35:22;13.50;;;2.67;;
6031;SDS011;3044;43.232;27.972;2023-06-10T14:37:50;6.80;;;2.80;;
6031;SDS011;3044;43.232;27.972;2023-06-10T14:40:17;9.33;;;2.87;;
6031;SDS011;3044;43.232;27.972;2023-06-10T14:42:46;3.20;;;2.60;;
6031;SDS011;3044;43.232;27.972;2023-06-10T14:45:13;6.10;;;3.47;;
6031;SDS011;3044;43.232;27.972;2023-06-10T14:47:42;5.10;;;3.17;;
6031;SDS011;3044;43.232;27.972;2023-06-10T14:50:10;8.60;;;3.33;;
6031;SDS011;3044;43.232;27.972;2023-06-10T14:52:37;6.20;;;2.90;;
6031;SDS011;3044;43.232;27.972;2023-06-10T14:55:05;6.90;;;2.70;;
6031;SDS011;3044;43.232;27.972;2023-06-10T14:57:33;5.23;;;3.07;;
6031;SDS011;3044;43.232;27.972;2023-06-10T15:00:00;7.90;;;3.20;;
6031;SDS011;3044;43.232;27.972;2023-06-10T15:02:27;7.90;;;2.67;;
6031;SDS011;3044;43.232;27.972;2023-06-10T15:04:55;19.20;;;3.93;;
6031;SDS011;3044;43.232;27.972;2023-06-10T15:07:23;4.30;;;3.17;;
6031;SDS011;3044;43.232;27.972;2023-06-10T15:09:50;7.97;;;3.10;;
6031;SDS011;3044;43.232;27.972;2023-06-10T15:12:17;6.90;;;3.67;;